Schaan, Liechtenstein
Current Conditions -  °F | °C
As of 4:50 AM on Friday 19 Dec 2014 (Local Time) from LSZR Reporting Station
Overcast Overcast  
Wind Chill: 45°   Ceiling: 3100
Heat Index: 45°   Visibility: 6mi
Dew Point: 45°   Wind: 2mph
Humidity: 100%   Direction: NA
Pressure: 30.21"   Gusts: NA
Location:  47.17°N, 9.51°E
Report Text: LSZR 190250Z AUTO VRB02KT 9999 OVC031 07/07 Q1023
Loading
Personal Weather Stations






























Interactive Weather Map New forecast layout! Learn more

10-Day Weather Forecast

Advertisements
Track Severe Weather on mobile